createdAt,value
2023-05-01T00:01:29.100Z,64.88
2023-05-01T00:03:55.508Z,64.95
2023-05-01T00:06:22.035Z,64.37
2023-05-01T00:08:48.420Z,64.52
2023-05-01T00:11:14.737Z,64.43
2023-05-01T00:13:41.033Z,63.88
2023-05-01T00:16:07.338Z,64.46
2023-05-01T00:18:33.670Z,64.04
2023-05-01T00:20:59.968Z,64.37
2023-05-01T00:23:26.279Z,63.81
2023-05-01T00:25:52.584Z,63.35
2023-05-01T00:28:18.913Z,63.46
2023-05-01T00:30:45.241Z,63.76
2023-05-01T00:33:11.578Z,63.55
2023-05-01T00:35:37.936Z,64.26
2023-05-01T00:38:04.267Z,64.10
2023-05-01T00:40:30.608Z,64.60
2023-05-01T00:42:56.926Z,64.70
2023-05-01T00:45:23.246Z,64.58
2023-05-01T00:47:49.660Z,64.67
2023-05-01T00:50:16.015Z,64.36
2023-05-01T00:52:42.341Z,64.12
2023-05-01T00:55:08.689Z,64.42
2023-05-01T00:57:35.000Z,63.28
2023-05-01T01:00:01.326Z,64.12
2023-05-01T01:02:27.659Z,64.10
2023-05-01T01:04:54.145Z,63.92
2023-05-01T01:07:20.646Z,64.67
2023-05-01T01:09:46.979Z,65.15
2023-05-01T01:12:13.328Z,65.59
2023-05-01T01:14:39.639Z,65.89
2023-05-01T01:17:06.088Z,65.49
2023-05-01T01:19:32.480Z,66.23
2023-05-01T01:21:58.781Z,66.15
2023-05-01T01:24:25.102Z,65.13
2023-05-01T01:26:51.425Z,65.57
2023-05-01T01:29:17.749Z,65.25
2023-05-01T01:31:44.227Z,65.31
2023-05-01T01:34:10.725Z,65.30
2023-05-01T01:36:37.052Z,65.46
2023-05-01T01:39:03.368Z,65.03
2023-05-01T01:41:29.692Z,65.22
2023-05-01T01:43:55.996Z,65.17
2023-05-01T01:46:22.344Z,65.01
2023-05-01T01:48:48.693Z,65.03
2023-05-01T01:51:15.013Z,64.81
2023-05-01T01:53:41.317Z,64.66
2023-05-01T01:56:07.622Z,64.51
2023-05-01T01:58:33.929Z,64.24
2023-05-01T02:01:00.251Z,64.54
2023-05-01T02:03:26.797Z,64.93
2023-05-01T02:05:53.280Z,64.85
2023-05-01T02:08:19.600Z,64.86
2023-05-01T02:10:45.917Z,64.87
2023-05-01T02:13:12.277Z,64.95
2023-05-01T02:15:38.606Z,64.93
2023-05-01T02:18:04.975Z,65.41
2023-05-01T02:20:31.364Z,65.65
2023-05-01T02:22:57.704Z,65.64
2023-05-01T02:25:25.071Z,66.29
2023-05-01T02:27:51.389Z,65.81
2023-05-01T02:30:17.728Z,66.35
2023-05-01T02:32:44.134Z,66.11
2023-05-01T02:35:10.521Z,65.99
2023-05-01T02:37:36.844Z,65.95
2023-05-01T02:40:03.170Z,65.68
2023-05-01T02:42:29.498Z,65.94
2023-05-01T02:44:55.821Z,65.75
2023-05-01T02:47:22.200Z,65.59
2023-05-01T02:49:48.563Z,65.08
2023-05-01T02:52:14.862Z,65.49
2023-05-01T02:54:41.211Z,65.45
2023-05-01T02:57:07.538Z,64.99
2023-05-01T02:59:33.867Z,64.99
2023-05-01T03:02:00.178Z,65.32
2023-05-01T03:04:26.556Z,65.00
2023-05-01T03:06:52.942Z,64.94
2023-05-01T03:09:19.262Z,65.58
2023-05-01T03:11:45.565Z,65.43
2023-05-01T03:14:11.884Z,65.19
2023-05-01T03:16:38.323Z,65.51
2023-05-01T03:19:04.690Z,65.49
2023-05-01T03:21:31.002Z,65.69
2023-05-01T03:23:57.317Z,65.49
2023-05-01T03:26:23.636Z,65.82
2023-05-01T03:28:49.968Z,66.20
2023-05-01T03:31:16.298Z,65.62
2023-05-01T03:33:42.602Z,66.16
2023-05-01T03:36:08.906Z,66.48
2023-05-01T03:38:35.224Z,66.51
2023-05-01T03:41:01.536Z,66.42
2023-05-01T03:43:27.854Z,66.59
2023-05-01T03:45:54.188Z,66.01
2023-05-01T03:48:20.525Z,65.33
2023-05-01T03:50:46.869Z,65.03
2023-05-01T03:53:13.173Z,64.74
2023-05-01T03:55:39.496Z,64.60
2023-05-01T03:58:05.852Z,64.46
2023-05-01T04:00:32.172Z,64.41
2023-05-01T04:02:58.592Z,64.49
2023-05-01T04:05:25.067Z,64.04
2023-05-01T04:07:51.391Z,63.76
2023-05-01T04:10:17.725Z,63.89
2023-05-01T04:12:44.034Z,63.81
2023-05-01T04:15:10.344Z,63.88
2023-05-01T04:17:36.677Z,63.78
2023-05-01T04:20:03.033Z,63.32
2023-05-01T04:22:29.339Z,63.26
2023-05-01T04:24:55.848Z,63.34
2023-05-01T04:27:22.160Z,63.66
2023-05-01T04:29:48.499Z,63.96
2023-05-01T04:32:14.824Z,63.91
2023-05-01T04:34:41.118Z,63.99
2023-05-01T04:37:07.414Z,64.40
2023-05-01T04:39:33.717Z,64.48
2023-05-01T04:42:00.035Z,64.74
2023-05-01T04:44:26.367Z,64.85
2023-05-01T04:46:52.861Z,64.83
2023-05-01T04:49:19.304Z,64.30
2023-05-01T04:51:45.609Z,64.75
2023-05-01T04:54:11.957Z,64.58
2023-05-01T04:56:38.265Z,64.00
2023-05-01T04:59:04.580Z,64.44
2023-05-01T05:01:30.987Z,64.88
2023-05-01T05:03:57.488Z,65.31
2023-05-01T05:06:23.901Z,65.74
2023-05-01T05:08:50.221Z,65.54
2023-05-01T05:11:16.528Z,65.31
2023-05-01T05:13:42.844Z,65.86
2023-05-01T05:16:09.178Z,65.10
2023-05-01T05:18:35.499Z,65.76
2023-05-01T05:21:01.810Z,66.00
2023-05-01T05:23:28.117Z,66.06
2023-05-01T05:25:54.433Z,66.24
2023-05-01T05:28:20.750Z,66.59
2023-05-01T05:30:47.070Z,66.24
2023-05-01T05:33:13.493Z,66.80
2023-05-01T05:35:39.893Z,66.98
2023-05-01T05:38:06.199Z,66.89
2023-05-01T05:40:32.524Z,66.67
2023-05-01T05:42:58.854Z,67.05
2023-05-01T05:45:25.161Z,67.16
2023-05-01T05:47:51.523Z,67.23
2023-05-01T05:50:17.877Z,66.35
2023-05-01T05:52:44.194Z,66.71
2023-05-01T05:55:10.511Z,67.16
2023-05-01T05:57:36.831Z,67.73
2023-05-01T06:00:03.152Z,67.90
2023-05-01T06:02:29.508Z,67.88
2023-05-01T06:04:55.856Z,67.42
2023-05-01T06:07:22.169Z,67.66
2023-05-01T06:09:48.511Z,67.18
2023-05-01T06:12:14.828Z,67.26
2023-05-01T06:14:41.460Z,67.72
2023-05-01T06:17:07.792Z,67.68
2023-05-01T06:19:34.128Z,67.60
2023-05-01T06:22:00.454Z,67.74
2023-05-01T06:24:26.782Z,68.17
2023-05-01T06:26:53.129Z,67.75
2023-05-01T06:29:19.461Z,67.28
2023-05-01T06:31:45.856Z,66.77
2023-05-01T06:34:12.322Z,66.89
2023-05-01T06:36:38.633Z,67.32
2023-05-01T06:39:04.966Z,67.90
2023-05-01T06:41:31.288Z,68.01
2023-05-01T06:43:57.602Z,67.45
2023-05-01T06:46:23.941Z,67.36
2023-05-01T06:48:50.299Z,67.46
2023-05-01T06:51:16.614Z,67.80
2023-05-01T06:53:42.922Z,67.93
2023-05-01T06:56:09.234Z,67.80
2023-05-01T06:58:35.613Z,68.04
2023-05-01T07:01:01.952Z,67.97
2023-05-01T07:03:28.384Z,67.66
2023-05-01T07:05:54.733Z,68.15
2023-05-01T07:08:21.034Z,67.08
2023-05-01T07:10:47.378Z,67.20
2023-05-01T07:13:13.709Z,66.56
2023-05-01T07:15:40.026Z,66.59
2023-05-01T07:18:06.487Z,66.41
2023-05-01T07:20:32.902Z,66.44
2023-05-01T07:22:59.282Z,66.44
2023-05-01T07:25:25.600Z,66.07
2023-05-01T07:27:51.918Z,66.09
2023-05-01T07:30:18.258Z,66.94
2023-05-01T07:32:44.628Z,67.05
2023-05-01T07:35:10.954Z,67.83
2023-05-01T07:37:37.337Z,68.06
2023-05-01T07:40:03.676Z,68.57
2023-05-01T07:42:29.989Z,68.31
2023-05-01T07:44:56.321Z,67.64
2023-05-01T07:47:22.706Z,67.14
2023-05-01T07:49:49.043Z,65.18
2023-05-01T07:52:15.354Z,63.48
2023-05-01T07:54:41.746Z,63.52
2023-05-01T07:57:08.076Z,64.67
2023-05-01T07:59:34.417Z,63.11
2023-05-01T08:02:00.789Z,63.10
2023-05-01T08:04:27.155Z,63.35
2023-05-01T08:06:53.524Z,63.08
2023-05-01T08:09:19.847Z,62.92
2023-05-01T08:11:46.153Z,63.72
2023-05-01T08:14:12.501Z,64.39
2023-05-01T08:16:38.911Z,63.86
2023-05-01T08:19:05.305Z,63.92
2023-05-01T08:21:31.630Z,63.86
2023-05-01T08:23:57.951Z,63.39
2023-05-01T08:26:24.283Z,63.20
2023-05-01T08:28:50.640Z,63.21
2023-05-01T08:31:16.977Z,63.50
2023-05-01T08:33:43.311Z,63.84
2023-05-01T08:36:09.641Z,63.60
2023-05-01T08:38:35.966Z,63.58
2023-05-01T08:41:02.291Z,64.05
2023-05-01T08:43:28.661Z,63.97
2023-05-01T08:45:54.957Z,63.62
2023-05-01T08:48:21.286Z,64.10
2023-05-01T08:50:47.613Z,63.54
2023-05-01T08:53:13.918Z,63.21
2023-05-01T08:55:40.222Z,62.86
2023-05-01T08:58:06.550Z,62.83
2023-05-01T09:00:32.861Z,63.16
2023-05-01T09:02:59.204Z,62.41
2023-05-01T09:05:25.565Z,62.28
2023-05-01T09:07:51.869Z,61.98
2023-05-01T09:10:18.186Z,61.77
2023-05-01T09:12:44.491Z,62.04
2023-05-01T09:15:10.826Z,62.60
2023-05-01T09:17:37.193Z,61.68
2023-05-01T09:20:03.552Z,61.98
2023-05-01T09:22:29.851Z,62.03
2023-05-01T09:24:56.197Z,61.38
2023-05-01T09:27:22.549Z,60.85
2023-05-01T09:29:48.849Z,60.89
2023-05-01T09:32:15.215Z,61.27
2023-05-01T09:34:41.581Z,61.22
2023-05-01T09:37:07.910Z,61.38
2023-05-01T09:39:34.252Z,61.38
2023-05-01T09:42:00.580Z,61.45
2023-05-01T09:44:26.926Z,61.12
2023-05-01T09:46:53.249Z,61.24
2023-05-01T09:49:19.556Z,61.58
2023-05-01T09:51:45.858Z,60.72
2023-05-01T09:54:12.157Z,60.44
2023-05-01T09:56:38.473Z,60.62
2023-05-01T09:59:04.799Z,60.38
2023-05-01T10:01:31.196Z,59.72
2023-05-01T10:03:57.699Z,59.41
2023-05-01T10:06:24.166Z,58.54
2023-05-01T10:08:50.649Z,58.43
2023-05-01T10:11:17.016Z,58.48
2023-05-01T10:13:43.346Z,59.04
2023-05-01T10:16:09.687Z,57.45
2023-05-01T10:18:35.993Z,59.11
2023-05-01T10:21:02.478Z,58.80
2023-05-01T10:23:28.803Z,57.22
2023-05-01T10:25:55.144Z,57.05
2023-05-01T10:28:21.462Z,56.89
2023-05-01T10:30:47.769Z,56.51
2023-05-01T10:33:14.237Z,55.28
2023-05-01T10:35:40.705Z,55.91
2023-05-01T10:38:07.050Z,55.99
2023-05-01T10:40:33.364Z,57.86
2023-05-01T10:42:59.692Z,56.88
2023-05-01T10:45:25.997Z,57.27
2023-05-01T10:47:52.361Z,57.92
2023-05-01T10:50:18.754Z,58.46
2023-05-01T10:52:45.083Z,58.10
2023-05-01T10:55:11.415Z,57.63
2023-05-01T10:57:37.725Z,57.50
2023-05-01T11:00:04.055Z,57.75
2023-05-01T11:02:30.416Z,59.02
2023-05-01T11:04:57.122Z,59.65
2023-05-01T11:07:23.798Z,59.84
2023-05-01T11:09:50.216Z,60.77
2023-05-01T11:12:16.527Z,59.77
2023-05-01T11:14:42.845Z,59.36
2023-05-01T11:17:09.157Z,59.46
2023-05-01T11:19:35.462Z,59.94
2023-05-01T11:22:01.789Z,58.64
2023-05-01T11:24:28.119Z,60.62
2023-05-01T11:26:54.442Z,60.25
2023-05-01T11:29:20.745Z,58.46
2023-05-01T11:31:47.112Z,57.60
2023-05-01T11:34:13.417Z,59.47
2023-05-01T11:36:39.739Z,57.98
2023-05-01T11:39:06.056Z,59.21
2023-05-01T11:41:32.388Z,59.25
2023-05-01T11:43:58.714Z,58.54
2023-05-01T11:46:25.167Z,58.82
2023-05-01T11:48:51.565Z,59.17
2023-05-01T11:51:17.868Z,58.73
2023-05-01T11:53:44.181Z,57.79
2023-05-01T11:56:19.480Z,57.29
2023-05-01T11:58:52.098Z,57.18
2023-05-01T12:01:18.423Z,56.96
2023-05-01T12:03:44.829Z,57.91
2023-05-01T12:06:11.287Z,57.13
2023-05-01T12:08:37.660Z,58.79
2023-05-01T12:11:04.051Z,58.95
2023-05-01T12:13:30.412Z,59.52
2023-05-01T12:15:56.735Z,59.00
2023-05-01T12:18:23.133Z,59.79
2023-05-01T12:20:49.489Z,58.12
2023-05-01T12:23:15.808Z,57.74
2023-05-01T12:25:42.125Z,57.92
2023-05-01T12:28:08.460Z,57.68
2023-05-01T12:30:34.825Z,57.03
2023-05-01T12:33:01.214Z,56.21
2023-05-01T12:35:27.570Z,57.29
2023-05-01T12:37:53.873Z,57.35
2023-05-01T12:40:20.179Z,56.37
2023-05-01T12:42:46.501Z,58.29
2023-05-01T12:45:12.831Z,57.45
2023-05-01T12:47:39.159Z,56.41
2023-05-01T12:50:05.493Z,55.27
2023-05-01T12:52:31.802Z,55.91
2023-05-01T12:54:58.283Z,55.30
2023-05-01T12:57:24.888Z,56.09
2023-05-01T12:59:51.212Z,57.21
2023-05-01T13:02:17.667Z,56.09
2023-05-01T13:04:44.049Z,55.65
2023-05-01T13:07:10.351Z,55.22
2023-05-01T13:09:36.654Z,53.36
2023-05-01T13:12:02.968Z,53.96
2023-05-01T13:14:29.311Z,53.69
2023-05-01T13:16:55.632Z,53.93
2023-05-01T13:19:21.969Z,53.94
2023-05-01T13:21:48.287Z,53.94
2023-05-01T13:24:14.603Z,53.01
2023-05-01T13:26:40.918Z,53.92
2023-05-01T13:29:07.269Z,53.71
2023-05-01T13:31:33.635Z,52.84
2023-05-01T13:33:59.997Z,52.74
2023-05-01T13:36:27.231Z,52.77
2023-05-01T13:38:53.795Z,52.72
2023-05-01T13:41:20.122Z,51.28
2023-05-01T13:43:46.425Z,51.32
2023-05-01T13:46:12.774Z,50.27
2023-05-01T13:48:39.131Z,49.99
2023-05-01T13:51:05.461Z,50.71
2023-05-01T13:53:31.791Z,50.00
2023-05-01T13:55:58.141Z,50.80
2023-05-01T13:58:24.443Z,51.22
2023-05-01T14:00:50.825Z,50.01
2023-05-01T14:03:17.249Z,50.78
2023-05-01T14:05:43.613Z,48.75
2023-05-01T14:08:10.009Z,48.87
2023-05-01T14:10:36.333Z,49.88
2023-05-01T14:13:02.644Z,48.53
2023-05-01T14:15:28.995Z,47.67
2023-05-01T14:17:55.377Z,49.14
2023-05-01T14:20:21.713Z,48.48
2023-05-01T14:22:48.091Z,48.81
2023-05-01T14:25:14.429Z,48.86
2023-05-01T14:27:40.753Z,48.85
2023-05-01T14:30:07.070Z,48.29
2023-05-01T14:32:33.491Z,48.68
2023-05-01T14:34:59.964Z,49.07
2023-05-01T14:37:26.406Z,48.26
2023-05-01T14:39:52.761Z,48.73
2023-05-01T14:42:19.074Z,47.94
2023-05-01T14:44:45.380Z,46.83
2023-05-01T14:47:11.700Z,49.22
2023-05-01T14:49:38.022Z,47.79
2023-05-01T14:52:04.332Z,46.66
2023-05-01T14:54:30.662Z,46.91
2023-05-01T14:56:56.999Z,46.54
2023-05-01T14:59:23.317Z,47.48
2023-05-01T15:01:49.706Z,46.92
2023-05-01T15:04:16.208Z,46.62
2023-05-01T15:06:42.684Z,45.16
2023-05-01T15:09:09.009Z,45.77
2023-05-01T15:11:35.338Z,47.00
2023-05-01T15:14:01.673Z,45.79
2023-05-01T15:16:28.057Z,47.41
2023-05-01T15:18:54.459Z,46.29
2023-05-01T15:21:20.774Z,46.47
2023-05-01T15:23:47.090Z,47.98
2023-05-01T15:26:13.425Z,47.49
2023-05-01T15:28:39.750Z,47.17
2023-05-01T15:31:06.051Z,48.09
2023-05-01T15:33:32.409Z,47.08
2023-05-01T15:35:58.756Z,49.12
2023-05-01T15:38:25.070Z,48.71
2023-05-01T15:40:51.379Z,49.73
2023-05-01T15:43:17.701Z,48.28
2023-05-01T15:45:44.066Z,48.60
2023-05-01T15:48:10.510Z,49.66
2023-05-01T15:50:36.871Z,47.94
2023-05-01T15:53:03.186Z,49.15
2023-05-01T15:55:29.475Z,47.90
2023-05-01T15:57:55.770Z,47.85
2023-05-01T16:00:22.090Z,49.42
2023-05-01T16:02:48.524Z,48.83
2023-05-01T16:05:14.912Z,49.34
2023-05-01T16:07:41.214Z,49.87
2023-05-01T16:10:07.543Z,49.81
2023-05-01T16:12:33.856Z,50.70
2023-05-01T16:15:00.155Z,51.04
2023-05-01T16:17:26.516Z,50.45
2023-05-01T16:19:52.896Z,50.60
2023-05-01T16:22:19.220Z,49.77
2023-05-01T16:24:45.551Z,49.18
2023-05-01T16:27:11.867Z,48.07
2023-05-01T16:29:38.199Z,49.13
2023-05-01T16:32:04.575Z,49.23
2023-05-01T16:34:30.965Z,49.45
2023-05-01T16:36:57.288Z,49.07
2023-05-01T16:39:23.633Z,48.42
2023-05-01T16:41:49.969Z,47.45
2023-05-01T16:44:16.309Z,48.14
2023-05-01T16:46:42.748Z,48.26
2023-05-01T16:49:09.129Z,49.33
2023-05-01T16:51:35.455Z,49.63
2023-05-01T16:54:01.757Z,50.30
2023-05-01T16:56:28.118Z,48.53
2023-05-01T16:58:54.442Z,50.21
2023-05-01T17:01:20.780Z,50.95
2023-05-01T17:03:47.139Z,52.10
2023-05-01T17:06:13.532Z,51.72
2023-05-01T17:08:39.868Z,50.64
2023-05-01T17:11:06.202Z,50.07
2023-05-01T17:13:32.513Z,52.07
2023-05-01T17:15:58.829Z,53.42
2023-05-01T17:18:25.154Z,55.07
2023-05-01T17:20:51.469Z,55.63
2023-05-01T17:23:17.799Z,56.09
2023-05-01T17:25:44.147Z,56.29
2023-05-01T17:28:10.471Z,57.26
2023-05-01T17:30:36.786Z,56.54
2023-05-01T17:33:03.198Z,56.15
2023-05-01T17:35:29.584Z,56.69
2023-05-01T17:37:55.888Z,57.16
2023-05-01T17:40:22.230Z,56.55
2023-05-01T17:42:48.585Z,56.64
2023-05-01T17:45:14.891Z,55.59
2023-05-01T17:47:41.312Z,54.89
2023-05-01T17:50:07.745Z,55.49
2023-05-01T17:52:34.061Z,55.76
2023-05-01T17:55:00.366Z,54.71
2023-05-01T17:57:26.699Z,54.31
2023-05-01T17:59:53.035Z,52.52
2023-05-01T18:02:19.449Z,52.55
2023-05-01T18:04:45.822Z,50.77
2023-05-01T18:07:12.235Z,52.02
2023-05-01T18:09:38.556Z,53.12
2023-05-01T18:12:04.853Z,52.45
2023-05-01T18:14:31.155Z,51.25
2023-05-01T18:16:57.529Z,52.57
2023-05-01T18:19:23.922Z,53.62
2023-05-01T18:21:56.287Z,53.86
2023-05-01T18:24:22.611Z,53.52
2023-05-01T18:26:49.014Z,54.64
2023-05-01T18:29:15.343Z,54.96
2023-05-01T18:31:41.665Z,55.08
2023-05-01T18:34:08.044Z,55.68
2023-05-01T18:36:34.362Z,56.19
2023-05-01T18:39:00.674Z,56.48
2023-05-01T18:41:27.012Z,56.74
2023-05-01T18:43:56.375Z,56.89
2023-05-01T18:46:24.119Z,56.01
2023-05-01T18:48:50.453Z,54.80
2023-05-01T18:51:16.766Z,54.88
2023-05-01T18:53:43.068Z,55.00
2023-05-01T18:56:09.442Z,55.21
2023-05-01T18:58:35.805Z,55.50
2023-05-01T19:01:02.121Z,55.77
2023-05-01T19:03:28.443Z,56.16
2023-05-01T19:05:54.766Z,56.26
2023-05-01T19:08:21.092Z,56.10
2023-05-01T19:10:47.434Z,55.40
2023-05-01T19:13:13.756Z,55.59
2023-05-01T19:15:40.110Z,55.91
2023-05-01T19:18:06.506Z,56.34
2023-05-01T19:20:32.872Z,56.42
2023-05-01T19:22:59.195Z,56.64
2023-05-01T19:25:25.498Z,57.17
2023-05-01T19:27:51.831Z,57.54
2023-05-01T19:30:18.145Z,58.08
2023-05-01T19:32:44.479Z,58.00
2023-05-01T19:35:11.054Z,58.41
2023-05-01T19:37:37.428Z,58.86
2023-05-01T19:40:03.771Z,58.72
2023-05-01T19:42:30.085Z,59.27
2023-05-01T19:44:56.398Z,59.03
2023-05-01T19:47:22.787Z,58.91
2023-05-01T19:49:49.174Z,58.99
2023-05-01T19:52:15.477Z,58.74
2023-05-01T19:54:41.781Z,58.81
2023-05-01T19:57:08.092Z,59.40
2023-05-01T19:59:34.409Z,59.13
2023-05-01T20:02:01.436Z,58.94
2023-05-01T20:04:28.011Z,58.88
2023-05-01T20:06:54.479Z,58.53
2023-05-01T20:09:20.847Z,58.57
2023-05-01T20:11:47.181Z,58.45
2023-05-01T20:14:13.512Z,58.46
2023-05-01T20:16:39.884Z,58.88
2023-05-01T20:19:06.230Z,58.87
2023-05-01T20:21:32.551Z,58.85
2023-05-01T20:23:58.904Z,59.38
2023-05-01T20:26:25.211Z,59.28
2023-05-01T20:28:51.527Z,59.60
2023-05-01T20:31:17.914Z,59.61
2023-05-01T20:33:44.290Z,59.81
2023-05-01T20:36:10.609Z,59.62
2023-05-01T20:38:36.940Z,60.00
2023-05-01T20:41:03.251Z,60.11
2023-05-01T20:43:29.572Z,60.82
2023-05-01T20:45:56.006Z,60.71
2023-05-01T20:48:22.369Z,61.72
2023-05-01T20:50:48.748Z,61.12
2023-05-01T20:53:15.070Z,61.38
2023-05-01T20:55:41.401Z,60.92
2023-05-01T20:58:07.737Z,60.44
2023-05-01T21:00:34.071Z,60.64
2023-05-01T21:03:00.507Z,60.72
2023-05-01T21:05:26.942Z,60.28
2023-05-01T21:07:53.259Z,59.82
2023-05-01T21:10:19.568Z,59.65
2023-05-01T21:12:45.866Z,59.73
2023-05-01T21:15:12.165Z,59.03
2023-05-01T21:17:38.506Z,57.91
2023-05-01T21:20:04.873Z,56.38
2023-05-01T21:22:31.187Z,56.23
2023-05-01T21:24:57.533Z,56.38
2023-05-01T21:27:23.842Z,54.79
2023-05-01T21:29:50.161Z,55.66
2023-05-01T21:32:16.482Z,55.81
2023-05-01T21:34:42.805Z,56.35
2023-05-01T21:37:09.128Z,56.83
2023-05-01T21:39:35.457Z,56.46
2023-05-01T21:42:01.772Z,57.02
2023-05-01T21:44:28.086Z,57.58
2023-05-01T21:46:54.445Z,57.70
2023-05-01T21:49:20.819Z,58.83
2023-05-01T21:51:47.114Z,59.16
2023-05-01T21:54:13.424Z,60.44
2023-05-01T21:56:39.756Z,61.01
2023-05-01T21:59:06.092Z,61.22
2023-05-01T22:01:32.504Z,61.54
2023-05-01T22:03:58.948Z,61.74
2023-05-01T22:06:25.365Z,62.14
2023-05-01T22:08:51.702Z,62.54
2023-05-01T22:11:18.033Z,62.58
2023-05-01T22:13:44.353Z,63.38
2023-05-01T22:16:10.720Z,63.21
2023-05-01T22:18:37.042Z,63.21
2023-05-01T22:21:03.411Z,63.25
2023-05-01T22:23:29.737Z,62.86
2023-05-01T22:25:56.060Z,62.23
2023-05-01T22:28:22.798Z,61.91
2023-05-01T22:30:49.159Z,62.66
2023-05-01T22:33:15.502Z,62.41
2023-05-01T22:35:41.886Z,61.83
2023-05-01T22:38:08.214Z,61.70
2023-05-01T22:40:34.547Z,61.75
2023-05-01T22:43:00.869Z,61.31
2023-05-01T22:45:27.175Z,61.73
2023-05-01T22:47:53.530Z,61.86
2023-05-01T22:50:19.902Z,61.09
2023-05-01T22:52:46.626Z,60.36
2023-05-01T22:55:13.060Z,61.15
2023-05-01T22:57:39.404Z,61.16
2023-05-01T23:00:05.822Z,61.57
2023-05-01T23:02:32.235Z,61.60
2023-05-01T23:04:58.643Z,62.00
2023-05-01T23:07:24.961Z,62.07
2023-05-01T23:09:51.291Z,61.60
2023-05-01T23:12:17.620Z,61.28
2023-05-01T23:14:43.949Z,60.82
2023-05-01T23:17:10.271Z,61.07
2023-05-01T23:19:36.575Z,60.79
2023-05-01T23:22:02.893Z,61.07
2023-05-01T23:24:29.199Z,61.46
2023-05-01T23:26:55.504Z,61.67
2023-05-01T23:29:21.799Z,60.65
2023-05-01T23:31:48.131Z,60.84
2023-05-01T23:34:14.457Z,61.04
2023-05-01T23:36:40.758Z,61.00
2023-05-01T23:39:07.068Z,60.49
2023-05-01T23:41:33.391Z,60.97
2023-05-01T23:43:59.708Z,61.40
2023-05-01T23:46:26.057Z,61.45
2023-05-01T23:48:52.423Z,61.68
2023-05-01T23:51:18.755Z,61.55
2023-05-01T23:53:45.063Z,61.37
2023-05-01T23:56:11.386Z,61.98
2023-05-01T23:58:37.727Z,61.94
